Gallatin Field
KBZN : now visible

Airfield :











YOU CAN JOIN US ON...

 
LOGIN :

Register | Disclaimer

   EN    FR    IT 

 









Legend :    VFR   Marginal VFR   IFR   Intensive IFR   Very Intensive IFR
Visi :
Ceiling :
>= 8 km
>= 3000ft
5 to 8 km
1000 to 3000 ft
1500m to 5 km
500 to 1000 ft
800 to 1500m
200 to 500 ft
< 800m
< 200 ft
Symbols :   Thunderstorms  Fog  Heavy snow  Heavy precipitations  Wind > 20 kt






- Airport Elevation : 4473 ft
- IATA code : BZN


KBZN - Gallatin Field

CURRENT METAR :
  • 311756Z 22025G35KT 10SM CLR 27/M02 A2981 RMK AO2 PK WND 22042/1726 SLP043 T02721017 10289 20156 53001

EXPIRED METARs :
  • 311656Z 23015G24KT 10SM CLR 28/00 A2981 RMK AO2 PK WND 20030/1631 SLP042 T02780000
  • 311556Z 18013G26KT 10SM CLR 27/05 A2981 RMK AO2 PK WND 21026/1553 SLP042 T02720050

TAF KBZN
Valid from the 31 at 18:00 until the 02 at 00:00 UTC


311736Z 3118/0124 22017G28KT P6SM SCT100
FM312000 25025G36KT P6SM SCT070 BKN100
FM010300 25009KT P6SM FEW090
KZLC FIR / North America



MET'MAP, your aeronautical weather chart ! - Copyright ORBIFLY December 2007 - Disclaimer

ORBIFLY MET'MAP TEAM :

Programming & Development : Alexandra Zaïnal
Concept & original design : Baudouin d'Aumeries
Assistance for programming : Marc-Olivier Méhu
Technical & hardware support : Manuel Goepfert

Contact : metmap@orbifly.com




SOURCES & CREDITS :

   NOAA       Earth
Advisory